Time;durP1;ratioP1;P1;durP2;ratioP2;P2;SDS_P1;SDS_P2;PMS_P1;PMS_P2;Temp;Humidity;BMP_temperature;BMP_pressure;BME280_temperature;BME280_humidity;BME280_pressure;Samples;Min_cycle;Max_cycle;Signal;HPM_P1;HPM_P2
2022/07/03 00:08:49;;;;;;;2.33;0.90;;;21.90;55.50;;;;;;20778228;28;20060;-78
2022/07/03 00:18:50;;;;;;;0.88;0.70;;;21.90;55.50;;;;;;20723997;28;20029;-78
2022/07/03 00:28:50;;;;;;;3.83;0.90;;;21.90;55.50;;;;;;20756466;28;20129;-77
2022/07/03 00:38:51;;;;;;;2.50;1.10;;;21.90;55.50;;;;;;20740281;28;20072;-77
2022/07/03 00:48:52;;;;;;;0.85;0.73;;;21.80;55.50;;;;;;21188029;22;20049;-77
2022/07/03 00:58:55;;;;;;;1.05;0.73;;;21.80;55.50;;;;;;20847614;28;20450;-77
2022/07/03 01:08:58;;;;;;;2.17;1.08;;;21.80;55.50;;;;;;20842720;28;20449;-76
2022/07/03 01:19:19;;;;;;;1.33;0.90;;;21.80;55.50;;;;;;20838271;28;20387;-78
2022/07/03 01:29:27;;;;;;;1.20;0.88;;;21.70;55.50;;;;;;20863693;28;20037;-77
2022/07/03 01:39:27;;;;;;;1.40;0.80;;;21.70;55.40;;;;;;20813140;28;20034;-78
2022/07/03 01:49:28;;;;;;;1.88;0.73;;;21.60;55.20;;;;;;20840913;28;20033;-78
2022/07/03 01:59:29;;;;;;;1.80;0.82;;;21.60;55.10;;;;;;20865615;28;20029;-77
2022/07/03 02:09:40;;;;;;;1.10;0.85;;;21.60;55.00;;;;;;20845875;28;20502;-78
2022/07/03 02:19:42;;;;;;;1.00;0.90;;;21.60;54.90;;;;;;20858351;28;20037;-79
2022/07/03 02:29:55;;;;;;;2.75;0.80;;;21.60;54.80;;;;;;20841051;28;20127;-77
2022/07/03 02:40:07;;;;;;;1.05;0.73;;;21.60;54.80;;;;;;20830745;28;20025;-79
2022/07/03 02:50:10;;;;;;;1.27;0.80;;;21.60;55.50;;;;;;20847798;28;20042;-79
2022/07/03 03:00:11;;;;;;;2.47;1.30;;;21.60;54.80;;;;;;20841446;28;20033;-76
2022/07/03 03:10:12;;;;;;;2.83;1.48;;;21.60;54.90;;;;;;20841601;28;20045;-76
2022/07/03 03:20:15;;;;;;;1.10;1.00;;;21.60;54.90;;;;;;20842297;28;20037;-76
2022/07/03 03:30:15;;;;;;;1.95;1.08;;;21.60;54.90;;;;;;20857840;28;20036;-77
2022/07/03 03:40:17;;;;;;;1.92;1.17;;;21.60;55.00;;;;;;20857666;28;20503;-76
2022/07/03 03:50:17;;;;;;;1.33;1.00;;;21.50;55.00;;;;;;20861050;28;20040;-76
2022/07/03 04:00:18;;;;;;;1.98;1.20;;;21.50;55.10;;;;;;20858084;28;20475;-76
2022/07/03 04:10:18;;;;;;;4.32;1.13;;;21.50;55.20;;;;;;20853131;28;20037;-77
2022/07/03 04:20:19;;;;;;;1.10;0.93;;;21.50;55.30;;;;;;20852510;28;20057;-76
2022/07/03 04:30:20;;;;;;;1.85;1.15;;;21.50;55.50;;;;;;20818767;28;20041;-76
2022/07/03 04:40:20;;;;;;;1.48;1.00;;;21.50;55.70;;;;;;20835981;28;20029;-76
2022/07/03 04:50:21;;;;;;;2.25;1.40;;;21.50;55.90;;;;;;20832508;28;20086;-76
2022/07/03 05:00:21;;;;;;;1.92;1.40;;;21.40;56.20;;;;;;20845867;28;20025;-76
2022/07/03 05:10:22;;;;;;;1.65;1.20;;;21.40;56.40;;;;;;20851302;28;20037;-76
2022/07/03 05:20:28;;;;;;;2.17;1.20;;;21.40;56.50;;;;;;20825641;28;20056;-76
2022/07/03 05:30:28;;;;;;;2.88;1.30;;;21.50;56.50;;;;;;20817597;28;20033;-76
2022/07/03 05:40:29;;;;;;;2.58;1.05;;;21.60;57.30;;;;;;20831899;28;20075;-76
2022/07/03 05:50:29;;;;;;;1.80;1.27;;;21.60;56.70;;;;;;20841554;28;20061;-72
2022/07/03 06:00:30;;;;;;;3.27;1.17;;;21.70;56.90;;;;;;20828336;28;20029;-74
2022/07/03 06:10:31;;;;;;;2.22;1.05;;;21.70;57.20;;;;;;20844576;28;20311;-72
2022/07/03 06:20:32;;;;;;;1.48;0.90;;;21.80;57.30;;;;;;20827675;28;20095;-75
2022/07/03 06:30:32;;;;;;;2.22;0.90;;;21.90;57.30;;;;;;20807435;28;20038;-74
2022/07/03 06:40:33;;;;;;;1.10;1.00;;;21.90;57.30;;;;;;20816913;28;20033;-74
2022/07/03 06:50:34;;;;;;;2.10;1.00;;;22.00;57.30;;;;;;20838483;28;20045;-75
2022/07/03 07:00:36;;;;;;;2.53;1.27;;;22.00;57.20;;;;;;20855190;28;20039;-76
2022/07/03 07:10:36;;;;;;;1.13;0.75;;;22.10;57.20;;;;;;20832229;28;20038;-72
2022/07/03 07:20:37;;;;;;;5.82;1.23;;;22.10;57.20;;;;;;20826382;28;20426;-77
2022/07/03 07:30:39;;;;;;;0.75;0.75;;;22.20;57.30;;;;;;20839319;28;20037;-72
2022/07/03 07:40:40;;;;;;;1.50;0.80;;;22.20;57.20;;;;;;20835575;28;20120;-72
2022/07/03 07:50:40;;;;;;;3.15;0.95;;;22.30;57.20;;;;;;20867261;28;20531;-72
2022/07/03 08:05:35;;;;;;;2.13;0.80;;;22.30;57.20;;;;;;20837526;28;20476;-71
2022/07/03 08:11:01;;;;;;;5.38;0.95;;;22.30;57.20;;;;;;20894435;28;20337;-70
2022/07/03 08:21:02;;;;;;;1.23;0.77;;;22.30;57.10;;;;;;20866382;28;20508;-70
2022/07/03 08:31:03;;;;;;;3.92;1.25;;;22.40;57.00;;;;;;20850601;28;20288;-74
2022/07/03 08:41:03;;;;;;;4.55;0.90;;;22.40;56.90;;;;;;20846289;28;20033;-71
2022/07/03 08:51:04;;;;;;;2.65;0.85;;;22.50;56.80;;;;;;20859855;28;20041;-72
2022/07/03 09:01:05;;;;;;;1.65;0.82;;;22.50;56.70;;;;;;20854903;28;20078;-71
2022/07/03 09:11:05;;;;;;;0.90;0.73;;;22.50;56.50;;;;;;20854138;28;20128;-72
2022/07/03 09:21:06;;;;;;;3.25;1.00;;;22.50;56.60;;;;;;20899664;28;20026;-75
2022/07/03 09:31:06;;;;;;;3.77;0.90;;;22.60;56.60;;;;;;20827688;28;20041;-71
2022/07/03 09:41:07;;;;;;;2.85;1.08;;;22.60;56.60;;;;;;20846387;28;20340;-74
2022/07/03 09:51:26;;;;;;;2.42;1.02;;;22.60;56.70;;;;;;20906055;28;20052;-75
2022/07/03 10:01:27;;;;;;;1.17;0.60;;;22.70;56.90;;;;;;20861997;28;20496;-72
2022/07/03 10:11:28;;;;;;;3.58;1.33;;;22.70;56.80;;;;;;20845873;28;20072;-72
2022/07/03 10:21:28;;;;;;;1.77;0.82;;;22.70;56.80;;;;;;20845477;28;20060;-73
2022/07/03 10:31:29;;;;;;;1.73;0.90;;;22.70;57.20;;;;;;20830211;28;20037;-76
2022/07/03 10:52:06;;;;;;;3.17;1.05;;;22.70;56.30;;;;;;20843405;28;20033;-81
2022/07/03 11:02:36;;;;;;;2.38;1.00;;;22.70;56.50;;;;;;20846635;28;20105;-74
2022/07/03 11:12:56;;;;;;;3.63;1.30;;;22.70;56.60;;;;;;20881336;28;20064;-76
2022/07/03 11:23:03;;;;;;;2.35;0.68;;;22.80;56.60;;;;;;20888253;28;20031;-76
2022/07/03 11:33:03;;;;;;;1.73;0.90;;;22.80;56.60;;;;;;20871749;28;20033;-74
2022/07/03 11:43:05;;;;;;;3.55;0.90;;;22.80;56.70;;;;;;20904938;28;20060;-72
2022/07/03 11:53:22;;;;;;;1.20;0.75;;;22.80;56.70;;;;;;20856093;28;20033;-71
2022/07/03 12:03:24;;;;;;;0.90;0.68;;;22.80;56.80;;;;;;20840012;28;20033;-70
2022/07/03 12:13:25;;;;;;;1.70;0.85;;;22.80;56.80;;;;;;20851777;28;20045;-79
2022/07/03 12:23:26;;;;;;;2.20;0.88;;;22.90;56.90;;;;;;20867523;28;20060;-76
2022/07/03 12:33:27;;;;;;;0.90;0.65;;;22.90;57.00;;;;;;20848644;28;20033;-76
2022/07/03 12:43:36;;;;;;;3.88;0.90;;;22.90;56.90;;;;;;20851302;28;20452;-77
2022/07/03 12:53:37;;;;;;;2.15;0.75;;;22.90;56.80;;;;;;20874017;28;20047;-78
2022/07/03 13:03:38;;;;;;;0.45;0.45;;;23.00;56.70;;;;;;20879736;28;20120;-79
2022/07/03 13:13:48;;;;;;;0.90;0.68;;;23.10;56.70;;;;;;20831798;28;20062;-77
2022/07/03 13:23:49;;;;;;;1.45;0.80;;;23.10;56.70;;;;;;20877662;28;20083;-77
2022/07/03 13:33:49;;;;;;;2.40;0.70;;;23.10;56.80;;;;;;20847340;28;20076;-75
2022/07/03 13:43:50;;;;;;;1.02;0.60;;;23.20;56.70;;;;;;20884273;28;20280;-76
2022/07/03 13:53:51;;;;;;;1.35;0.60;;;23.20;56.60;;;;;;20856387;28;20060;-77
2022/07/03 14:03:51;;;;;;;2.28;0.50;;;23.40;56.10;;;;;;20858232;28;20032;-75
2022/07/03 14:13:52;;;;;;;3.25;0.70;;;23.40;55.60;;;;;;20846336;28;20044;-76
2022/07/03 14:23:52;;;;;;;0.95;0.57;;;23.50;55.70;;;;;;20901024;28;20029;-76
2022/07/03 14:33:53;;;;;;;1.10;0.43;;;23.50;55.70;;;;;;20841826;28;20685;-71
2022/07/03 14:43:54;;;;;;;1.38;0.50;;;23.70;55.60;;;;;;20866930;28;20128;-77
2022/07/03 14:53:54;;;;;;;0.90;0.70;;;23.70;55.30;;;;;;20900327;28;20076;-75
2022/07/03 15:04:00;;;;;;;0.98;0.60;;;23.80;55.10;;;;;;20877136;28;20099;-74
2022/07/03 15:14:02;;;;;;;1.60;0.47;;;23.90;54.70;;;;;;20859375;28;20041;-75
2022/07/03 15:24:05;;;;;;;1.35;0.73;;;23.90;54.90;;;;;;20884664;28;20549;-76
2022/07/03 15:34:06;;;;;;;0.63;0.60;;;23.90;55.20;;;;;;20813288;28;20071;-75
2022/07/03 15:44:20;;;;;;;0.52;0.50;;;24.00;55.20;;;;;;20848454;28;20130;-73
2022/07/03 15:54:36;;;;;;;3.50;0.87;;;24.00;55.20;;;;;;20826953;28;20069;-74
2022/07/03 16:05:03;;;;;;;1.33;0.50;;;24.00;55.20;;;;;;20861144;28;20029;-75
2022/07/03 16:15:07;;;;;;;1.85;0.60;;;24.00;55.40;;;;;;20867959;28;20088;-73
2022/07/03 16:25:08;;;;;;;0.70;0.40;;;24.00;55.30;;;;;;20818982;28;20060;-74
2022/07/03 16:35:49;;;;;;;0.65;0.30;;;24.00;55.40;;;;;;20850774;28;20120;-72
2022/07/03 16:45:51;;;;;;;0.77;0.43;;;24.00;55.70;;;;;;20857488;28;20409;-80
2022/07/03 16:55:51;;;;;;;0.30;0.30;;;24.00;55.80;;;;;;20828867;28;20037;-71
2022/07/03 17:05:52;;;;;;;0.77;0.40;;;23.90;56.00;;;;;;20851443;28;20090;-74
2022/07/03 17:15:57;;;;;;;1.85;0.50;;;23.90;56.10;;;;;;20809999;28;20300;-75
2022/07/03 17:25:58;;;;;;;;;;;23.90;56.10;;;;;;20836857;28;20037;-76
2022/07/03 17:36:06;;;;;;;1.88;0.68;;;23.90;56.20;;;;;;20846501;28;20000;-75
2022/07/03 17:46:06;;;;;;;0.55;0.50;;;23.90;56.40;;;;;;20869987;28;20029;-74
2022/07/03 17:56:10;;;;;;;0.98;0.57;;;23.90;56.30;;;;;;20862224;28;20041;-74
2022/07/03 18:06:12;;;;;;;0.52;0.30;;;23.90;56.20;;;;;;20824036;28;20025;-74
2022/07/03 18:16:14;;;;;;;0.35;0.30;;;23.90;56.00;;;;;;20849204;28;20036;-74
2022/07/03 18:26:28;;;;;;;1.00;0.50;;;24.00;55.50;;;;;;20853102;28;20041;-73
2022/07/03 18:36:29;;;;;;;1.17;0.60;;;24.00;55.50;;;;;;20842815;28;20041;-73
2022/07/03 18:46:30;;;;;;;0.30;0.30;;;24.00;55.20;;;;;;20822451;28;20423;-73
2022/07/03 18:56:48;;;;;;;1.43;0.50;;;23.90;54.90;;;;;;20852913;28;20326;-73
2022/07/03 19:06:49;;;;;;;1.35;0.35;;;24.00;54.80;;;;;;20828266;28;20291;-73
2022/07/03 19:16:50;;;;;;;1.10;0.63;;;24.00;54.80;;;;;;20835323;28;20048;-73
2022/07/03 19:26:51;;;;;;;1.60;0.50;;;23.90;55.30;;;;;;20852946;28;20507;-74
2022/07/03 19:36:51;;;;;;;3.42;0.55;;;23.90;55.80;;;;;;20836343;28;20044;-74
2022/07/03 19:46:52;;;;;;;1.07;0.50;;;23.90;56.00;;;;;;20834811;28;20044;-74
2022/07/03 19:56:53;;;;;;;1.02;0.77;;;23.90;56.20;;;;;;20861990;28;20390;-74
2022/07/03 20:06:53;;;;;;;0.77;0.70;;;23.90;56.30;;;;;;20840113;28;20049;-74
2022/07/03 20:16:54;;;;;;;2.75;0.82;;;23.90;56.40;;;;;;20836922;28;20099;-73
2022/07/03 20:26:56;;;;;;;0.63;0.57;;;23.80;56.50;;;;;;20849190;28;20121;-73
2022/07/03 20:36:58;;;;;;;1.35;0.60;;;23.80;56.60;;;;;;20860417;28;20076;-73
2022/07/03 20:46:58;;;;;;;0.55;0.50;;;23.90;56.80;;;;;;20873942;28;20045;-74
2022/07/03 20:57:01;;;;;;;0.95;0.68;;;23.80;56.80;;;;;;20839492;28;20455;-74
2022/07/03 21:07:02;;;;;;;2.72;1.00;;;23.80;57.00;;;;;;20847045;28;20029;-74
2022/07/03 21:17:03;;;;;;;1.27;0.65;;;23.80;57.20;;;;;;20860926;28;20040;-74
2022/07/03 21:27:04;;;;;;;1.52;0.80;;;23.80;57.40;;;;;;20806497;28;20127;-75
2022/07/03 21:37:05;;;;;;;1.15;0.80;;;23.70;57.60;;;;;;20846307;28;20504;-76
2022/07/03 21:47:05;;;;;;;1.23;0.82;;;23.60;57.90;;;;;;20822724;28;20040;-77
2022/07/03 21:57:06;;;;;;;1.30;0.93;;;23.70;58.10;;;;;;20868538;28;20227;-76
2022/07/03 22:07:06;;;;;;;0.77;0.50;;;23.60;58.10;;;;;;20851006;28;20049;-73
2022/07/03 22:17:07;;;;;;;0.77;0.40;;;23.60;58.10;;;;;;20827595;28;20037;-74
2022/07/03 22:27:08;;;;;;;1.33;0.75;;;23.60;58.10;;;;;;20836321;28;20108;-74
2022/07/03 22:37:08;;;;;;;1.63;0.80;;;23.60;58.10;;;;;;20848217;28;20412;-75
2022/07/03 22:47:10;;;;;;;1.02;0.60;;;23.60;58.20;;;;;;20822161;28;20693;-74
2022/07/03 22:57:11;;;;;;;2.38;0.80;;;23.50;58.20;;;;;;20844074;28;20044;-76
2022/07/03 23:07:12;;;;;;;2.23;0.87;;;23.50;58.40;;;;;;20849718;28;20026;-75
2022/07/03 23:17:12;;;;;;;4.07;0.90;;;23.50;58.40;;;;;;20845747;28;20340;-74
2022/07/03 23:27:13;;;;;;;3.05;0.88;;;23.40;58.40;;;;;;20835839;28;20041;-74
2022/07/03 23:37:13;;;;;;;2.22;0.68;;;23.40;58.50;;;;;;20845862;28;20132;-74
2022/07/03 23:47:14;;;;;;;1.23;0.95;;;23.40;58.60;;;;;;20847093;28;20045;-74
2022/07/03 23:57:14;;;;;;;1.42;0.65;;;23.30;58.40;;;;;;20852544;28;20068;-76
